createdAt,value
2019-01-10T00:01:24.283Z,100237.16
2019-01-10T00:06:23.062Z,100245.75
2019-01-10T00:07:10.545Z,100251.95
2019-01-10T00:07:57.207Z,100247.84
2019-01-10T00:13:56.408Z,100241.92
2019-01-10T00:16:07.360Z,100230.97
2019-01-10T00:18:05.328Z,100240.05
2019-01-10T00:27:41.957Z,100253.16
2019-01-10T00:29:56.424Z,100252.62
2019-01-10T00:31:56.405Z,100248.14
2019-01-10T00:33:51.916Z,100252.20
2019-01-10T00:37:54.070Z,100254.76
2019-01-10T00:41:26.729Z,100258.20
2019-01-10T00:42:13.593Z,100264.56
2019-01-10T00:43:00.961Z,100255.52
2019-01-10T00:44:14.235Z,100255.52
2019-01-10T00:50:31.414Z,100270.67
2019-01-10T00:53:33.640Z,100279.91
2019-01-10T00:54:20.380Z,100276.39
2019-01-10T01:05:40.523Z,100282.70
2019-01-10T01:09:40.442Z,100287.55
2019-01-10T01:10:27.445Z,100280.70
2019-01-10T01:15:23.841Z,100278.92
2019-01-10T01:16:10.853Z,100278.09
2019-01-10T01:16:57.615Z,100275.27
2019-01-10T01:17:44.218Z,100271.98
2019-01-10T01:20:58.859Z,100281.73
2019-01-10T01:22:52.212Z,100279.41
2019-01-10T01:23:38.945Z,100272.91
2019-01-10T01:24:25.355Z,100280.53
2019-01-10T01:25:38.829Z,100280.53
2019-01-10T01:28:54.054Z,100285.95
2019-01-10T01:29:40.899Z,100283.05
2019-01-10T01:30:28.320Z,100290.16
2019-01-10T01:36:45.434Z,100301.75
2019-01-10T01:43:41.571Z,100293.49
2019-01-10T01:46:35.427Z,100305.17
2019-01-10T01:47:22.134Z,100305.48
2019-01-10T01:48:09.888Z,100307.91
2019-01-10T01:48:56.309Z,100308.19
2019-01-10T01:54:13.461Z,100301.92
2019-01-10T01:56:13.489Z,100295.66
2019-01-10T01:57:01.157Z,100301.14
2019-01-10T02:00:32.058Z,100297.86
2019-01-10T02:01:18.828Z,100296.20
2019-01-10T02:02:06.316Z,100298.67
2019-01-10T02:19:13.838Z,100322.95
2019-01-10T02:23:17.407Z,100306.45
2019-01-10T02:24:04.352Z,100314.56
2019-01-10T02:24:51.493Z,100317.80
2019-01-10T02:25:37.870Z,100319.13
2019-01-10T02:26:24.672Z,100317.28
2019-01-10T02:27:11.370Z,100312.45
2019-01-10T02:30:09.837Z,100311.62
2019-01-10T02:32:11.202Z,100327.22
2019-01-10T02:32:57.830Z,100319.31
2019-01-10T02:33:45.472Z,100316.33
2019-01-10T02:41:22.158Z,100335.31
2019-01-10T02:42:09.438Z,100336.92
2019-01-10T02:43:58.014Z,100332.75
2019-01-10T02:50:32.300Z,100329.08
2019-01-10T02:51:47.479Z,100331.23
2019-01-10T03:44:51.399Z,100344.45
2019-01-10T03:55:42.343Z,100348.78
2019-01-10T04:16:47.397Z,100356.09
2019-01-10T04:20:22.310Z,100355.96
2019-01-10T04:32:52.679Z,100360.85
2019-01-10T04:36:27.031Z,100349.88
2019-01-10T04:45:13.375Z,100358.67
2019-01-10T04:50:09.052Z,100358.46
2019-01-10T05:00:40.297Z,100349.25
2019-01-10T05:05:10.593Z,100351.78
2019-01-10T05:12:56.345Z,100345.16
2019-01-10T05:15:06.586Z,100343.52
2019-01-10T05:18:40.629Z,100339.63
2019-01-10T05:50:48.682Z,100336.97
2019-01-10T06:06:07.663Z,100360.36
2019-01-10T06:08:27.323Z,100367.44
2019-01-10T06:09:40.936Z,100371.65
2019-01-10T06:10:54.259Z,100368.00
2019-01-10T06:17:28.327Z,100364.56
2019-01-10T06:31:50.411Z,100373.11
2019-01-10T06:34:18.284Z,100377.80
2019-01-10T06:46:11.720Z,100380.22
2019-01-10T07:23:52.348Z,100375.73
2019-01-10T07:35:32.081Z,100377.80
2019-01-10T07:39:55.116Z,100377.20
2019-01-10T07:47:28.276Z,100377.00
2019-01-10T07:50:56.141Z,100388.05
2019-01-10T07:53:28.379Z,100387.95
2019-01-10T07:58:08.987Z,100407.61
2019-01-10T08:05:19.749Z,100413.33
2019-01-10T08:15:29.137Z,100438.19
2019-01-10T08:17:57.266Z,100442.69
2019-01-10T08:36:09.216Z,100432.09
2019-01-10T08:40:52.445Z,100425.02
2019-01-10T08:46:53.745Z,100417.86
2019-01-10T09:09:42.788Z,100434.52
2019-01-10T09:25:57.348Z,100448.80
2019-01-10T09:30:31.353Z,100443.04
2019-01-10T09:32:58.013Z,100443.09
2019-01-10T09:43:49.649Z,100459.45
2019-01-10T09:46:09.124Z,100465.22
2019-01-10T09:46:55.716Z,100467.44
2019-01-10T09:53:41.619Z,100476.45
2019-01-10T10:14:01.682Z,100449.19
2019-01-10T10:23:26.541Z,100437.31
2019-01-10T10:27:50.499Z,100436.78
2019-01-10T10:36:51.900Z,100432.23
2019-01-10T10:39:06.860Z,100438.61
2019-01-10T10:46:39.598Z,100423.35
2019-01-10T10:47:26.403Z,100431.94
2019-01-10T10:50:43.888Z,100439.41
2019-01-10T10:51:57.189Z,100436.27
2019-01-10T10:59:21.344Z,100447.01
2019-01-10T11:02:56.730Z,100456.15
2019-01-10T11:10:35.081Z,100477.12
2019-01-10T11:31:28.228Z,100468.78
2019-01-10T11:40:30.460Z,100483.92
2019-01-10T11:45:04.409Z,100490.75
2019-01-10T11:47:58.816Z,100499.84
2019-01-10T11:57:17.511Z,100495.08
2019-01-10T12:04:05.796Z,100502.44
2019-01-10T12:19:01.136Z,100497.83
2019-01-10T12:30:43.362Z,100517.63
2019-01-10T12:39:25.072Z,100520.98
2019-01-10T12:42:52.986Z,100517.01
2019-01-10T12:45:21.571Z,100512.86
2019-01-10T12:48:36.507Z,100519.20
2019-01-10T12:54:06.047Z,100529.78
2019-01-10T13:02:47.454Z,100522.43
2019-01-10T13:04:49.781Z,100527.46
2019-01-10T13:05:36.524Z,100528.09
2019-01-10T13:06:24.128Z,100522.09
2019-01-10T13:14:33.298Z,100526.54
2019-01-10T13:15:47.893Z,100519.48
2019-01-10T13:21:23.982Z,100513.11
2019-01-10T13:22:37.605Z,100513.41
2019-01-10T13:25:43.997Z,100509.20
2019-01-10T13:34:08.696Z,100507.19
2019-01-10T13:43:14.414Z,100529.81
2019-01-10T13:45:16.521Z,100509.68
2019-01-10T13:46:03.234Z,100509.68
2019-01-10T13:49:02.633Z,100519.48
2019-01-10T13:49:49.448Z,100519.48
2019-01-10T13:52:04.045Z,100513.17
2019-01-10T14:00:49.127Z,100532.91
2019-01-10T14:02:16.644Z,100529.78
2019-01-10T14:03:11.749Z,100522.16
2019-01-10T14:03:49.871Z,100526.49
2019-01-10T14:04:26.240Z,100523.67
2019-01-10T14:05:19.740Z,100527.38
2019-01-10T14:05:55.939Z,100529.86
2019-01-10T14:06:32.860Z,100527.56
2019-01-10T14:07:09.206Z,100527.56
2019-01-10T14:07:46.469Z,100534.06
2019-01-10T14:08:23.745Z,100526.98
2019-01-10T14:09:00.552Z,100534.64
2019-01-10T14:09:36.976Z,100534.64
2019-01-10T14:10:14.205Z,100538.16
2019-01-10T14:10:50.685Z,100538.16
2019-01-10T14:11:27.570Z,100539.93
2019-01-10T14:12:04.797Z,100542.36
2019-01-10T14:12:42.099Z,100539.41
2019-01-10T14:13:18.583Z,100534.39
2019-01-10T14:13:55.501Z,100538.55
2019-01-10T14:14:32.235Z,100545.93
2019-01-10T14:15:10.297Z,100543.47
2019-01-10T14:15:46.840Z,100540.18
2019-01-10T14:16:23.498Z,100553.81
2019-01-10T14:17:01.791Z,100543.25
2019-01-10T14:17:38.308Z,100546.45
2019-01-10T14:18:15.033Z,100547.20
2019-01-10T14:18:51.127Z,100549.25
2019-01-10T14:19:27.548Z,100549.50
2019-01-10T14:20:04.607Z,100549.50
2019-01-10T14:20:41.081Z,100559.94
2019-01-10T14:21:17.560Z,100559.94
2019-01-10T14:21:54.488Z,100565.13
2019-01-10T14:22:31.056Z,100565.38
2019-01-10T14:23:08.153Z,100565.38
2019-01-10T14:23:45.308Z,100560.02
2019-01-10T14:24:22.077Z,100565.20
2019-01-10T14:24:58.757Z,100568.73
2019-01-10T14:25:35.543Z,100568.73
2019-01-10T14:26:12.645Z,100569.76
2019-01-10T14:26:50.305Z,100565.72
2019-01-10T14:27:26.910Z,100572.25
2019-01-10T14:28:03.905Z,100572.25
2019-01-10T14:28:40.747Z,100576.95
2019-01-10T14:29:17.115Z,100576.95
2019-01-10T14:29:53.997Z,100573.58
2019-01-10T14:30:34.787Z,100583.20
2019-01-10T14:31:11.837Z,100583.20
2019-01-10T14:31:49.139Z,100579.27
2019-01-10T14:32:26.306Z,100579.27
2019-01-10T14:33:02.942Z,100573.84
2019-01-10T14:33:39.157Z,100573.84
2019-01-10T14:34:15.607Z,100561.88
2019-01-10T14:34:52.094Z,100576.38
2019-01-10T14:35:29.280Z,100576.38
2019-01-10T14:36:06.459Z,100572.23
2019-01-10T14:36:43.067Z,100572.23
2019-01-10T14:37:20.421Z,100575.42
2019-01-10T14:37:57.149Z,100578.63
2019-01-10T14:38:34.376Z,100578.63
2019-01-10T14:39:11.609Z,100578.69
2019-01-10T14:39:47.981Z,100578.69
2019-01-10T14:40:24.669Z,100579.41
2019-01-10T14:41:01.313Z,100569.14
2019-01-10T14:41:38.260Z,100563.33
2019-01-10T14:42:15.180Z,100579.41
2019-01-10T14:42:51.761Z,100579.41
2019-01-10T14:43:28.432Z,100569.00
2019-01-10T14:44:04.999Z,100573.98
2019-01-10T14:44:41.542Z,100571.45
2019-01-10T14:45:18.577Z,100575.92
2019-01-10T14:45:56.097Z,100572.91
2019-01-10T14:46:32.519Z,100572.91
2019-01-10T14:47:08.881Z,100580.94
2019-01-10T14:47:45.714Z,100586.57
2019-01-10T14:48:22.647Z,100581.40
2019-01-10T14:48:59.076Z,100581.40
2019-01-10T14:49:35.644Z,100583.59
2019-01-10T14:50:12.594Z,100581.21
2019-01-10T14:50:49.750Z,100585.59
2019-01-10T14:51:26.410Z,100585.64
2019-01-10T14:52:03.168Z,100582.46
2019-01-10T14:52:39.514Z,100580.06
2019-01-10T14:53:16.413Z,100580.06
2019-01-10T14:53:53.705Z,100587.36
2019-01-10T14:54:30.210Z,100590.05
2019-01-10T14:55:08.185Z,100590.05
2019-01-10T14:55:44.708Z,100592.76
2019-01-10T14:56:21.806Z,100595.66
2019-01-10T14:56:58.889Z,100569.67
2019-01-10T14:57:35.865Z,100591.41
2019-01-10T14:58:12.811Z,100595.22
2019-01-10T14:58:49.952Z,100595.22
2019-01-10T14:59:26.689Z,100591.09
2019-01-10T15:00:02.996Z,100594.97
2019-01-10T15:00:40.272Z,100597.69
2019-01-10T15:01:17.339Z,100597.69
2019-01-10T15:01:53.887Z,100599.59
2019-01-10T15:02:30.503Z,100592.27
2019-01-10T15:03:07.395Z,100585.51
2019-01-10T15:03:43.940Z,100603.41
2019-01-10T15:04:20.570Z,100603.41
2019-01-10T15:04:56.518Z,100590.91
2019-01-10T15:05:34.562Z,100595.05
2019-01-10T15:06:11.412Z,100595.05
2019-01-10T15:06:48.334Z,100593.36
2019-01-10T15:07:25.042Z,100596.94
2019-01-10T15:08:01.710Z,100596.94
2019-01-10T15:08:38.463Z,100593.39
2019-01-10T15:09:15.371Z,100592.28
2019-01-10T15:09:52.200Z,100593.89
2019-01-10T15:10:29.238Z,100590.41
2019-01-10T15:11:05.581Z,100590.41
2019-01-10T15:11:41.915Z,100578.45
2019-01-10T15:12:19.048Z,100584.27
2019-01-10T15:12:55.299Z,100584.27
2019-01-10T15:13:32.625Z,100574.77
2019-01-10T15:14:09.444Z,100577.02
2019-01-10T15:14:46.760Z,100577.02
2019-01-10T15:15:24.876Z,100570.34
2019-01-10T15:16:01.396Z,100570.34
2019-01-10T15:16:38.179Z,100578.48
2019-01-10T15:17:15.027Z,100580.42
2019-01-10T15:17:52.120Z,100581.55
2019-01-10T15:18:29.624Z,100581.55
2019-01-10T15:19:06.722Z,100578.37
2019-01-10T15:19:43.299Z,100573.22
2019-01-10T15:20:23.240Z,100579.77
2019-01-10T15:21:00.303Z,100578.98
2019-01-10T15:21:37.098Z,100578.14
2019-01-10T15:22:13.477Z,100580.25
2019-01-10T15:22:50.439Z,100582.73
2019-01-10T15:23:27.320Z,100586.03
2019-01-10T15:24:04.008Z,100582.80
2019-01-10T15:24:40.535Z,100582.80
2019-01-10T15:25:17.915Z,100580.00
2019-01-10T15:25:54.511Z,100586.01
2019-01-10T15:26:31.085Z,100586.01
2019-01-10T15:27:08.275Z,100577.04
2019-01-10T15:27:45.595Z,100580.66
2019-01-10T15:28:22.366Z,100579.50
2019-01-10T15:28:59.483Z,100599.81
2019-01-10T15:29:36.720Z,100588.99
2019-01-10T15:30:19.239Z,100591.52
2019-01-10T15:30:57.154Z,100591.52
2019-01-10T15:31:34.079Z,100595.27
2019-01-10T15:32:11.066Z,100595.86
2019-01-10T15:32:47.772Z,100592.28
2019-01-10T15:33:23.987Z,100596.71
2019-01-10T15:34:00.740Z,100596.44
2019-01-10T15:34:37.023Z,100587.36
2019-01-10T15:35:13.568Z,100597.80
2019-01-10T15:35:49.916Z,100599.89
2019-01-10T15:36:26.230Z,100598.76
2019-01-10T15:37:03.016Z,100598.76
2019-01-10T15:37:39.569Z,100594.83
2019-01-10T15:38:16.167Z,100594.83
2019-01-10T15:38:52.729Z,100540.60
2019-01-10T15:39:29.370Z,100540.60
2019-01-10T15:40:07.064Z,100592.34
2019-01-10T15:40:43.649Z,100588.30
2019-01-10T15:41:20.364Z,100588.30
2019-01-10T15:41:57.371Z,100593.97
2019-01-10T15:42:33.644Z,100588.83
2019-01-10T15:43:11.238Z,100595.83
2019-01-10T15:43:47.997Z,100593.31
2019-01-10T15:44:29.099Z,100596.60
2019-01-10T15:45:03.975Z,100593.11
2019-01-10T15:45:40.498Z,100584.23
2019-01-10T15:46:17.276Z,100584.23
2019-01-10T15:46:54.189Z,100589.80
2019-01-10T15:47:30.500Z,100599.56
2019-01-10T15:48:07.572Z,100589.46
2019-01-10T15:48:43.955Z,100594.48
2019-01-10T15:49:20.220Z,100595.02
2019-01-10T15:49:56.778Z,100606.11
2019-01-10T15:50:32.812Z,100608.50
2019-01-10T15:51:09.870Z,100608.50
2019-01-10T15:51:46.860Z,100610.97
2019-01-10T15:52:23.694Z,100611.55
2019-01-10T15:53:01.022Z,100611.55
2019-01-10T15:53:36.964Z,100607.73
2019-01-10T15:54:13.568Z,100612.11
2019-01-10T15:54:50.775Z,100610.69
2019-01-10T15:55:27.203Z,100610.84
2019-01-10T15:56:04.528Z,100608.05
2019-01-10T15:56:41.395Z,100614.98
2019-01-10T15:57:17.657Z,100614.98
2019-01-10T15:57:54.330Z,100610.08
2019-01-10T15:58:31.431Z,100614.33
2019-01-10T15:59:08.803Z,100616.02
2019-01-10T15:59:45.866Z,100612.30
2019-01-10T16:00:27.171Z,100609.45
2019-01-10T16:01:03.883Z,100605.02
2019-01-10T16:01:40.129Z,100603.80
2019-01-10T16:02:16.743Z,100603.80
2019-01-10T16:02:53.804Z,100605.40
2019-01-10T16:03:30.440Z,100596.63
2019-01-10T16:04:07.668Z,100598.06
2019-01-10T16:04:45.472Z,100596.43
2019-01-10T16:05:22.350Z,100587.13
2019-01-10T16:05:59.077Z,100598.78
2019-01-10T16:06:35.258Z,100598.78
2019-01-10T16:07:11.954Z,100587.31
2019-01-10T16:07:48.880Z,100597.97
2019-01-10T16:08:25.895Z,100593.30
2019-01-10T16:09:02.891Z,100593.30
2019-01-10T16:09:39.756Z,100598.00
2019-01-10T16:10:18.173Z,100590.19
2019-01-10T16:10:55.105Z,100591.81
2019-01-10T16:11:32.165Z,100591.81
2019-01-10T16:12:08.817Z,100585.31
2019-01-10T16:12:45.577Z,100583.26
2019-01-10T16:13:22.049Z,100579.41
2019-01-10T16:14:01.501Z,100584.80
2019-01-10T16:14:38.345Z,100584.80
2019-01-10T16:15:19.095Z,100578.61
2019-01-10T16:15:56.170Z,100579.63
2019-01-10T16:16:32.450Z,100569.87
2019-01-10T16:17:08.694Z,100564.36
2019-01-10T16:17:44.947Z,100572.27
2019-01-10T16:18:21.735Z,100572.27
2019-01-10T16:18:58.151Z,100565.98
2019-01-10T16:19:34.678Z,100565.98
2019-01-10T16:20:11.408Z,100583.01
2019-01-10T16:20:47.790Z,100575.04
2019-01-10T16:21:24.367Z,100575.04
2019-01-10T16:22:01.272Z,100572.36
2019-01-10T16:22:37.783Z,100571.87
2019-01-10T16:23:14.364Z,100571.59
2019-01-10T16:23:50.892Z,100571.19
2019-01-10T16:24:27.342Z,100571.19
2019-01-10T16:25:04.318Z,100578.23
2019-01-10T16:25:40.791Z,100574.75
2019-01-10T16:26:17.246Z,100572.41
2019-01-10T16:26:54.324Z,100572.41
2019-01-10T16:27:30.616Z,100581.38
2019-01-10T16:28:07.437Z,100573.48
2019-01-10T16:28:44.160Z,100572.98
2019-01-10T16:29:20.617Z,100572.98
2019-01-10T16:29:57.351Z,100586.88
2019-01-10T16:30:34.212Z,100584.23
2019-01-10T16:31:11.104Z,100587.80
2019-01-10T16:31:48.342Z,100579.42
2019-01-10T16:32:25.238Z,100577.29
2019-01-10T16:33:02.176Z,100578.48
2019-01-10T16:33:38.967Z,100578.48
2019-01-10T16:34:15.610Z,100584.21
2019-01-10T16:34:52.608Z,100582.86
2019-01-10T16:35:29.372Z,100582.86
2019-01-10T16:36:05.934Z,100570.02
2019-01-10T16:36:42.571Z,100570.02
2019-01-10T16:37:19.135Z,100577.45
2019-01-10T16:37:55.590Z,100572.95
2019-01-10T16:38:32.532Z,100582.19
2019-01-10T16:39:10.543Z,100574.91
2019-01-10T16:39:46.929Z,100574.91
2019-01-10T16:40:23.767Z,100580.66
2019-01-10T16:41:00.164Z,100574.16
2019-01-10T16:41:37.631Z,100580.79
2019-01-10T16:42:14.397Z,100580.79
2019-01-10T16:42:51.109Z,100584.36
2019-01-10T16:43:28.171Z,100576.97
2019-01-10T16:44:04.964Z,100576.97
2019-01-10T16:44:42.101Z,100583.66
2019-01-10T16:45:25.245Z,100574.69
2019-01-10T16:46:01.993Z,100572.88
2019-01-10T16:46:38.497Z,100576.75
2019-01-10T16:47:15.337Z,100576.75
2019-01-10T16:47:51.742Z,100577.88
2019-01-10T16:48:27.904Z,100577.88
2019-01-10T16:49:04.472Z,100582.05
2019-01-10T16:49:40.595Z,100580.95
2019-01-10T16:50:17.337Z,100580.95
2019-01-10T16:50:54.478Z,100588.98
2019-01-10T16:51:30.909Z,100588.98
2019-01-10T16:52:07.103Z,100555.85
2019-01-10T16:52:43.480Z,100586.52
2019-01-10T16:53:20.055Z,100586.52
2019-01-10T16:53:56.968Z,100585.44
2019-01-10T16:54:33.619Z,100589.31
2019-01-10T16:55:11.423Z,100586.25
2019-01-10T16:55:48.034Z,100591.72
2019-01-10T16:56:24.792Z,100591.72
2019-01-10T16:57:01.441Z,100596.34
2019-01-10T16:57:37.971Z,100596.34
2019-01-10T16:58:15.307Z,100590.31
2019-01-10T16:58:51.916Z,100584.52
2019-01-10T16:59:29.222Z,100581.80
2019-01-10T17:00:06.528Z,100581.80
2019-01-10T17:00:43.395Z,100587.45
2019-01-10T17:01:20.388Z,100584.48
2019-01-10T17:01:57.222Z,100584.48
2019-01-10T17:02:36.287Z,100582.48
2019-01-10T17:03:11.930Z,100582.48
2019-01-10T17:03:49.347Z,100580.02
2019-01-10T17:04:26.430Z,100580.02
2019-01-10T17:05:03.222Z,100571.22
2019-01-10T17:05:40.236Z,100573.13
2019-01-10T17:06:16.863Z,100567.70
2019-01-10T17:06:53.734Z,100567.70
2019-01-10T17:07:30.320Z,100554.59
2019-01-10T17:08:08.432Z,100554.59
2019-01-10T17:08:44.641Z,100556.00
2019-01-10T17:09:22.323Z,100554.92
2019-01-10T17:09:59.059Z,100555.37
2019-01-10T17:10:36.108Z,100558.91
2019-01-10T17:11:12.994Z,100558.63
2019-01-10T17:11:50.178Z,100558.63
2019-01-10T17:12:26.895Z,100565.11
2019-01-10T17:13:04.031Z,100573.80
2019-01-10T17:13:40.971Z,100567.88
2019-01-10T17:14:17.558Z,100565.36
2019-01-10T17:14:54.962Z,100569.59
2019-01-10T17:15:32.001Z,100569.59
2019-01-10T17:16:08.763Z,100572.47
2019-01-10T17:16:50.150Z,100572.47
2019-01-10T17:17:23.533Z,100572.28
2019-01-10T17:17:59.839Z,100572.83
2019-01-10T17:18:35.909Z,100572.83
2019-01-10T17:19:25.692Z,100566.93
2019-01-10T17:20:02.418Z,100567.82
2019-01-10T17:20:39.439Z,100577.13
2019-01-10T17:21:16.357Z,100573.47
2019-01-10T17:21:53.499Z,100573.47
2019-01-10T17:22:29.770Z,100567.72
2019-01-10T17:23:07.390Z,100567.72
2019-01-10T17:23:45.542Z,100555.13
2019-01-10T17:24:22.568Z,100564.00
2019-01-10T17:24:59.550Z,100559.27
2019-01-10T17:25:36.627Z,100559.27
2019-01-10T17:26:13.029Z,100561.02
2019-01-10T17:26:49.785Z,100555.75
2019-01-10T17:27:26.451Z,100565.36
2019-01-10T17:28:03.121Z,100565.36
2019-01-10T17:28:40.623Z,100554.70
2019-01-10T17:29:17.575Z,100554.70
2019-01-10T17:29:54.418Z,100548.84
2019-01-10T17:30:32.638Z,100552.30
2019-01-10T17:31:09.794Z,100537.80
2019-01-10T17:31:46.455Z,100537.80
2019-01-10T17:32:23.688Z,100519.24
2019-01-10T17:33:00.665Z,100540.38
2019-01-10T17:33:37.354Z,100536.31
2019-01-10T17:34:14.133Z,100527.57
2019-01-10T17:34:51.301Z,100526.74
2019-01-10T17:35:30.698Z,100517.75
2019-01-10T17:36:07.571Z,100516.23
2019-01-10T17:36:44.717Z,100516.23
2019-01-10T17:37:22.186Z,100527.16
2019-01-10T17:37:58.797Z,100523.95
2019-01-10T17:38:35.481Z,100521.09
2019-01-10T17:39:12.713Z,100526.05
2019-01-10T17:39:49.442Z,100526.05
2019-01-10T17:40:26.611Z,100521.21
2019-01-10T17:41:03.376Z,100521.21
2019-01-10T17:41:40.488Z,100518.84
2019-01-10T17:42:17.520Z,100518.84
2019-01-10T17:42:54.936Z,100516.56
2019-01-10T17:43:31.351Z,100515.67
2019-01-10T17:44:07.896Z,100515.67
2019-01-10T17:44:44.963Z,100515.67
2019-01-10T17:45:23.720Z,100512.56
2019-01-10T17:46:00.947Z,100510.03
2019-01-10T17:46:38.131Z,100510.03
2019-01-10T17:47:15.298Z,100522.23
2019-01-10T17:47:55.321Z,100516.28
2019-01-10T17:48:32.061Z,100516.31
2019-01-10T17:49:08.790Z,100515.18
2019-01-10T17:49:45.565Z,100514.84
2019-01-10T17:50:22.169Z,100510.97
2019-01-10T17:50:58.747Z,100510.97
2019-01-10T17:51:35.665Z,100511.05
2019-01-10T17:52:12.531Z,100500.47
2019-01-10T17:52:49.676Z,100495.13
2019-01-10T17:53:26.154Z,100506.97
2019-01-10T17:54:02.772Z,100490.48
2019-01-10T17:54:39.613Z,100495.47
2019-01-10T17:55:16.517Z,100495.47
2019-01-10T17:55:53.116Z,100483.16
2019-01-10T17:56:29.364Z,100488.58
2019-01-10T17:57:05.962Z,100482.52
2019-01-10T17:57:42.743Z,100479.02
2019-01-10T17:58:20.177Z,100479.02
2019-01-10T17:58:56.791Z,100498.16
2019-01-10T17:59:33.462Z,100495.58
2019-01-10T18:00:14.939Z,100495.58
2019-01-10T18:00:51.377Z,100502.45
2019-01-10T18:01:29.021Z,100502.45
2019-01-10T18:02:05.284Z,100500.70
2019-01-10T18:02:42.316Z,100495.90
2019-01-10T18:03:19.480Z,100507.72
2019-01-10T18:03:56.175Z,100507.72
2019-01-10T18:04:33.111Z,100507.80
2019-01-10T18:05:10.177Z,100513.28
2019-01-10T18:05:47.507Z,100507.89
2019-01-10T18:06:24.407Z,100507.89
2019-01-10T18:07:00.666Z,100513.03
2019-01-10T18:07:37.502Z,100503.09
2019-01-10T18:08:14.048Z,100503.09
2019-01-10T18:08:50.603Z,100501.95
2019-01-10T18:09:27.530Z,100509.17
2019-01-10T18:10:04.289Z,100497.17
2019-01-10T18:10:41.168Z,100497.17
2019-01-10T18:11:18.562Z,100502.27
2019-01-10T18:11:55.054Z,100490.16
2019-01-10T18:12:31.618Z,100497.77
2019-01-10T18:13:08.611Z,100499.78
2019-01-10T18:13:45.417Z,100499.31
2019-01-10T18:14:22.867Z,100499.31
2019-01-10T18:15:00.290Z,100499.28
2019-01-10T18:15:36.517Z,100500.91
2019-01-10T18:16:13.383Z,100500.91
2019-01-10T18:16:50.281Z,100509.18
2019-01-10T18:17:28.187Z,100507.36
2019-01-10T18:18:04.720Z,100504.64
2019-01-10T18:18:41.448Z,100502.28
2019-01-10T18:19:18.386Z,100502.28
2019-01-10T18:19:54.819Z,100501.20
2019-01-10T18:20:36.064Z,100490.96
2019-01-10T18:21:15.047Z,100489.08
2019-01-10T18:21:51.648Z,100488.33
2019-01-10T18:22:28.642Z,100488.33
2019-01-10T18:23:05.243Z,100483.50
2019-01-10T18:23:41.829Z,100484.64
2019-01-10T18:24:18.359Z,100486.27
2019-01-10T18:24:54.989Z,100482.39
2019-01-10T18:25:31.415Z,100478.88
2019-01-10T18:26:07.947Z,100472.95
2019-01-10T18:26:44.591Z,100478.96
2019-01-10T18:27:21.040Z,100478.53
2019-01-10T18:27:57.624Z,100478.53
2019-01-10T18:28:34.426Z,100480.42
2019-01-10T18:29:11.786Z,100481.83
2019-01-10T18:29:48.767Z,100483.78
2019-01-10T18:30:25.399Z,100488.20
2019-01-10T18:31:01.686Z,100488.20
2019-01-10T18:31:38.784Z,100490.70
2019-01-10T18:32:16.380Z,100489.53
2019-01-10T18:32:53.407Z,100480.04
2019-01-10T18:33:29.753Z,100483.34
2019-01-10T18:34:06.342Z,100484.97
2019-01-10T18:34:43.448Z,100484.97
2019-01-10T18:35:26.064Z,100484.13
2019-01-10T18:35:59.974Z,100482.38
2019-01-10T18:36:36.716Z,100482.38
2019-01-10T18:37:13.856Z,100482.62
2019-01-10T18:37:50.681Z,100482.62
2019-01-10T18:38:30.860Z,100476.91
2019-01-10T18:39:09.937Z,100466.88
2019-01-10T18:39:46.954Z,100462.23
2019-01-10T18:40:23.494Z,100461.47
2019-01-10T18:41:00.206Z,100459.01
2019-01-10T18:41:36.784Z,100452.02
2019-01-10T18:42:13.577Z,100446.00
2019-01-10T18:42:50.172Z,100445.44
2019-01-10T18:43:27.529Z,100438.70
2019-01-10T18:44:06.547Z,100434.06
2019-01-10T18:44:43.676Z,100431.92
2019-01-10T18:45:23.332Z,100433.84
2019-01-10T18:46:00.988Z,100417.78
2019-01-10T18:46:37.496Z,100413.44
2019-01-10T18:47:13.870Z,100414.73
2019-01-10T18:47:56.696Z,100404.61
2019-01-10T18:48:28.921Z,100413.05
2019-01-10T18:49:06.124Z,100407.18
2019-01-10T18:49:44.039Z,100407.18
2019-01-10T18:50:22.835Z,100395.42
2019-01-10T18:50:59.375Z,100411.56
2019-01-10T18:51:35.562Z,100408.27
2019-01-10T18:52:12.168Z,100408.27
2019-01-10T18:52:49.030Z,100409.06
2019-01-10T18:53:25.889Z,100404.39
2019-01-10T18:54:02.824Z,100409.44
2019-01-10T18:54:39.319Z,100401.25
2019-01-10T18:55:16.531Z,100398.98
2019-01-10T18:55:53.974Z,100405.69
2019-01-10T18:56:30.882Z,100347.17
2019-01-10T18:57:07.664Z,100347.17
2019-01-10T18:57:43.923Z,100397.80
2019-01-10T18:58:20.406Z,100392.06
2019-01-10T18:58:57.376Z,100392.06
2019-01-10T18:59:36.595Z,100400.31
2019-01-10T19:00:19.294Z,100388.38
2019-01-10T19:00:57.158Z,100391.48
2019-01-10T19:01:33.911Z,100386.50
2019-01-10T19:02:10.931Z,100386.50
2019-01-10T19:02:47.695Z,100378.05
2019-01-10T19:03:24.062Z,100382.13
2019-01-10T19:04:00.853Z,100392.95
2019-01-10T19:04:37.392Z,100398.66
2019-01-10T19:05:14.452Z,100398.66
2019-01-10T19:05:51.293Z,100391.80
2019-01-10T19:06:27.812Z,100383.86
2019-01-10T19:07:04.667Z,100393.34
2019-01-10T19:07:41.128Z,100384.62
2019-01-10T19:08:17.602Z,100384.55
2019-01-10T19:08:54.442Z,100392.98
2019-01-10T19:09:31.667Z,100400.87
2019-01-10T19:10:09.284Z,100398.69
2019-01-10T19:10:47.011Z,100398.69
2019-01-10T19:11:23.501Z,100400.81
2019-01-10T19:12:00.368Z,100404.09
2019-01-10T19:12:37.044Z,100400.55
2019-01-10T19:13:14.188Z,100402.17
2019-01-10T19:13:50.998Z,100413.83
2019-01-10T19:14:27.958Z,100413.83
2019-01-10T19:15:04.543Z,100411.05
2019-01-10T19:15:41.395Z,100411.05
2019-01-10T19:16:18.016Z,100417.59
2019-01-10T19:16:55.333Z,100416.03
2019-01-10T19:17:31.773Z,100410.56
2019-01-10T19:18:08.924Z,100410.56
2019-01-10T19:18:46.173Z,100424.44
2019-01-10T19:19:22.792Z,100419.52
2019-01-10T19:19:59.853Z,100424.09
2019-01-10T19:20:36.565Z,100424.09
2019-01-10T19:21:13.781Z,100425.14
2019-01-10T19:21:50.749Z,100424.49
2019-01-10T19:22:27.627Z,100436.69
2019-01-10T19:23:05.265Z,100420.80
2019-01-10T19:23:42.156Z,100420.80
2019-01-10T19:24:19.399Z,100423.89
2019-01-10T19:24:57.011Z,100417.72
2019-01-10T19:25:33.814Z,100417.72
2019-01-10T19:26:11.031Z,100415.78
2019-01-10T19:26:47.885Z,100407.08
2019-01-10T19:27:24.587Z,100407.08
2019-01-10T19:28:01.405Z,100411.30
2019-01-10T19:28:38.711Z,100359.30
2019-01-10T19:29:15.056Z,100398.84
2019-01-10T19:29:51.565Z,100398.84
2019-01-10T19:30:30.812Z,100401.05
2019-01-10T19:31:07.719Z,100395.53
2019-01-10T19:31:45.482Z,100400.34
2019-01-10T19:32:22.536Z,100403.96
2019-01-10T19:33:01.343Z,100403.96
2019-01-10T19:33:38.298Z,100397.91
2019-01-10T19:34:15.683Z,100398.73